createdAt,value
2017-10-31T00:01:33.336Z,3.22
2017-10-31T00:04:00.991Z,2.47
2017-10-31T00:06:28.589Z,2.80
2017-10-31T00:08:56.395Z,2.70
2017-10-31T00:11:23.961Z,3.00
2017-10-31T00:13:51.610Z,2.75
2017-10-31T00:16:19.275Z,2.85
2017-10-31T00:18:46.966Z,2.92
2017-10-31T00:21:14.600Z,2.90
2017-10-31T00:23:42.371Z,1.75
2017-10-31T00:26:09.994Z,2.45
2017-10-31T00:28:37.608Z,3.28
2017-10-31T00:31:05.556Z,3.20
2017-10-31T00:33:33.133Z,2.55
2017-10-31T00:36:00.793Z,3.28
2017-10-31T00:38:28.412Z,2.40
2017-10-31T00:40:56.073Z,2.70
2017-10-31T00:43:24.023Z,2.33
2017-10-31T00:45:51.655Z,2.55
2017-10-31T00:48:20.117Z,2.70
2017-10-31T00:50:47.769Z,2.35
2017-10-31T00:53:15.390Z,1.90
2017-10-31T00:55:43.922Z,2.97
2017-10-31T00:58:11.596Z,2.35
2017-10-31T01:00:39.246Z,1.77
2017-10-31T01:03:06.847Z,2.53
2017-10-31T01:05:34.502Z,1.70
2017-10-31T01:08:02.149Z,2.22
2017-10-31T01:10:29.794Z,1.92
2017-10-31T01:12:57.481Z,2.53
2017-10-31T01:15:25.121Z,2.95
2017-10-31T01:17:52.949Z,2.62
2017-10-31T01:20:21.310Z,2.20
2017-10-31T01:22:48.930Z,2.20
2017-10-31T01:25:16.535Z,1.60
2017-10-31T01:27:44.138Z,2.22
2017-10-31T01:30:11.778Z,1.83
2017-10-31T01:32:40.171Z,2.62
2017-10-31T01:35:07.829Z,2.60
2017-10-31T01:37:35.493Z,2.25
2017-10-31T01:40:03.159Z,2.12
2017-10-31T01:42:30.769Z,2.53
2017-10-31T01:44:58.388Z,2.70
2017-10-31T01:47:25.983Z,2.55
2017-10-31T01:49:53.582Z,2.37
2017-10-31T01:52:21.233Z,2.92
2017-10-31T01:54:49.716Z,2.80
2017-10-31T01:57:18.161Z,2.03
2017-10-31T01:59:45.799Z,2.35
2017-10-31T02:02:13.489Z,2.65
2017-10-31T02:04:41.217Z,2.72
2017-10-31T02:07:08.847Z,2.37
2017-10-31T02:09:37.306Z,2.75
2017-10-31T02:12:05.018Z,3.08
2017-10-31T02:14:32.679Z,2.90
2017-10-31T02:17:00.337Z,2.65
2017-10-31T02:19:27.949Z,2.70
2017-10-31T02:21:55.545Z,1.95
2017-10-31T02:24:23.172Z,2.75
2017-10-31T02:26:50.838Z,3.08
2017-10-31T02:29:18.457Z,3.03
2017-10-31T02:31:46.085Z,2.97
2017-10-31T02:34:14.474Z,2.12
2017-10-31T02:36:42.165Z,2.90
2017-10-31T02:39:19.650Z,2.85
2017-10-31T02:41:47.284Z,2.42
2017-10-31T02:44:14.861Z,2.70
2017-10-31T02:46:42.488Z,3.25
2017-10-31T02:49:10.891Z,3.05
2017-10-31T02:51:38.604Z,3.17
2017-10-31T02:54:07.097Z,3.00
2017-10-31T02:56:34.736Z,3.20
2017-10-31T02:59:02.363Z,3.17
2017-10-31T03:01:30.023Z,3.65
2017-10-31T03:03:57.662Z,3.95
2017-10-31T03:06:26.068Z,3.12
2017-10-31T03:08:53.769Z,3.65
2017-10-31T03:11:21.484Z,3.90
2017-10-31T03:13:49.895Z,4.50
2017-10-31T03:16:18.429Z,4.97
2017-10-31T03:18:46.193Z,3.92
2017-10-31T03:21:14.726Z,4.12
2017-10-31T03:23:42.384Z,5.05
2017-10-31T03:26:10.050Z,4.15
2017-10-31T03:28:37.658Z,3.87
2017-10-31T03:31:06.018Z,4.93
2017-10-31T03:33:33.840Z,4.87
2017-10-31T03:36:01.481Z,5.25
2017-10-31T03:38:29.908Z,5.12
2017-10-31T03:40:57.573Z,5.70
2017-10-31T03:43:25.308Z,4.93
2017-10-31T03:45:52.940Z,4.45
2017-10-31T03:48:21.350Z,5.00
2017-10-31T03:50:49.012Z,4.70
2017-10-31T03:53:16.646Z,5.68
2017-10-31T03:55:44.984Z,5.82
2017-10-31T03:58:12.680Z,5.65
2017-10-31T04:00:41.868Z,5.90
2017-10-31T04:03:09.516Z,5.00
2017-10-31T04:05:37.933Z,5.50
2017-10-31T04:08:06.290Z,5.47
2017-10-31T04:10:34.040Z,5.00
2017-10-31T04:13:02.452Z,6.10
2017-10-31T04:15:30.845Z,6.18
2017-10-31T04:17:58.488Z,7.50
2017-10-31T04:20:26.898Z,6.53
2017-10-31T04:22:54.537Z,6.40
2017-10-31T04:25:22.910Z,5.15
2017-10-31T04:27:52.236Z,5.82
2017-10-31T04:30:19.863Z,7.30
2017-10-31T04:32:48.206Z,6.43
2017-10-31T04:35:15.829Z,6.25
2017-10-31T04:37:43.479Z,5.80
2017-10-31T04:40:11.061Z,6.62
2017-10-31T04:42:38.700Z,7.10
2017-10-31T04:45:07.163Z,6.97
2017-10-31T04:47:35.639Z,6.47
2017-10-31T04:50:03.279Z,7.05
2017-10-31T04:52:30.953Z,5.45
2017-10-31T04:54:58.625Z,6.40
2017-10-31T04:57:26.265Z,7.87
2017-10-31T04:59:53.996Z,5.75
2017-10-31T05:02:21.587Z,6.28
2017-10-31T05:04:49.150Z,6.07
2017-10-31T05:07:16.810Z,6.03
2017-10-31T05:09:44.389Z,5.47
2017-10-31T05:12:12.002Z,9.35
2017-10-31T05:14:39.917Z,6.53
2017-10-31T05:17:08.292Z,6.10
2017-10-31T05:19:35.941Z,6.82
2017-10-31T05:22:03.573Z,7.18
2017-10-31T05:24:31.188Z,6.55
2017-10-31T05:26:59.538Z,6.72
2017-10-31T05:29:27.913Z,6.75
2017-10-31T05:31:55.879Z,7.62
2017-10-31T05:34:23.490Z,7.78
2017-10-31T05:36:51.867Z,7.18
2017-10-31T05:39:19.495Z,8.75
2017-10-31T05:41:47.887Z,8.13
2017-10-31T05:44:15.514Z,8.40
2017-10-31T05:46:43.126Z,8.73
2017-10-31T05:49:10.724Z,7.97
2017-10-31T05:51:38.384Z,7.85
2017-10-31T05:54:05.994Z,10.05
2017-10-31T05:56:33.679Z,8.55
2017-10-31T05:59:01.360Z,8.98
2017-10-31T06:01:29.048Z,8.13
2017-10-31T06:03:57.424Z,8.70
2017-10-31T06:06:25.093Z,8.63
2017-10-31T06:08:52.670Z,8.40
2017-10-31T06:11:21.019Z,8.30
2017-10-31T06:13:48.662Z,7.72
2017-10-31T06:16:16.290Z,12.70
2017-10-31T06:18:43.917Z,8.77
2017-10-31T06:21:12.719Z,7.22
2017-10-31T06:23:45.913Z,9.20
2017-10-31T06:26:19.888Z,9.90
2017-10-31T06:28:53.233Z,10.15
2017-10-31T06:31:27.071Z,9.15
2017-10-31T06:33:54.696Z,9.35
2017-10-31T06:36:22.394Z,9.35
2017-10-31T06:38:50.047Z,11.10
2017-10-31T06:41:17.714Z,9.98
2017-10-31T06:43:45.377Z,10.50
2017-10-31T06:46:13.031Z,9.95
2017-10-31T06:48:40.680Z,10.10
2017-10-31T06:51:09.054Z,10.88
2017-10-31T06:53:36.662Z,10.65
2017-10-31T06:56:04.284Z,12.52
2017-10-31T06:58:31.978Z,10.85
2017-10-31T07:00:59.627Z,11.68
2017-10-31T07:03:27.336Z,11.43
2017-10-31T07:05:55.691Z,10.00
2017-10-31T07:08:23.332Z,10.82
2017-10-31T07:10:50.942Z,9.65
2017-10-31T07:13:18.558Z,9.82
2017-10-31T07:15:46.179Z,9.50
2017-10-31T07:18:13.770Z,9.55
2017-10-31T07:20:41.525Z,9.55
2017-10-31T07:23:09.170Z,8.07
2017-10-31T07:25:36.774Z,8.30
2017-10-31T07:28:04.375Z,9.27
2017-10-31T07:30:32.771Z,8.35
2017-10-31T07:33:00.418Z,8.00
2017-10-31T07:35:28.049Z,8.55
2017-10-31T07:37:56.496Z,9.45
2017-10-31T07:40:24.121Z,8.32
2017-10-31T07:42:51.714Z,9.20
2017-10-31T07:45:19.339Z,9.77
2017-10-31T07:47:46.962Z,8.90
2017-10-31T07:50:14.581Z,9.68
2017-10-31T07:52:42.236Z,10.38
2017-10-31T07:55:09.839Z,9.15
2017-10-31T07:57:37.453Z,8.93
2017-10-31T08:00:05.056Z,9.73
2017-10-31T08:02:32.697Z,8.35
2017-10-31T08:05:00.406Z,8.82
2017-10-31T08:07:27.981Z,9.00
2017-10-31T08:09:56.321Z,8.82
2017-10-31T08:12:24.037Z,8.63
2017-10-31T08:14:51.703Z,9.77
2017-10-31T08:17:19.391Z,9.23
2017-10-31T08:19:47.258Z,10.20
2017-10-31T08:22:14.860Z,8.60
2017-10-31T08:24:42.491Z,7.95
2017-10-31T08:27:10.136Z,9.77
2017-10-31T08:29:37.873Z,9.35
2017-10-31T08:32:05.520Z,8.52
2017-10-31T08:34:33.183Z,8.98
2017-10-31T08:37:00.869Z,8.13
2017-10-31T08:39:28.515Z,8.50
2017-10-31T08:41:56.894Z,9.05
2017-10-31T08:44:24.522Z,8.85
2017-10-31T08:46:52.118Z,9.13
2017-10-31T08:49:19.737Z,10.65
2017-10-31T08:51:47.339Z,10.10
2017-10-31T08:54:14.928Z,11.88
2017-10-31T08:56:43.338Z,10.07
2017-10-31T08:59:10.991Z,10.02
2017-10-31T09:01:38.692Z,7.87
2017-10-31T09:04:07.078Z,9.57
2017-10-31T09:06:35.421Z,8.25
2017-10-31T09:09:03.058Z,8.05
2017-10-31T09:11:31.435Z,8.45
2017-10-31T09:13:59.011Z,8.25
2017-10-31T09:16:27.396Z,8.40
2017-10-31T09:18:55.024Z,7.95
2017-10-31T09:21:24.636Z,9.23
2017-10-31T09:23:52.990Z,9.15
2017-10-31T09:26:22.168Z,9.35
2017-10-31T09:28:49.854Z,9.27
2017-10-31T09:31:17.460Z,8.73
2017-10-31T09:33:45.828Z,10.00
2017-10-31T09:36:15.207Z,8.20
2017-10-31T09:38:42.890Z,10.32
2017-10-31T09:41:11.328Z,10.05
2017-10-31T09:43:38.941Z,8.52
2017-10-31T09:46:07.357Z,8.20
2017-10-31T09:48:34.940Z,9.60
2017-10-31T09:51:02.614Z,11.57
2017-10-31T09:53:31.006Z,9.07
2017-10-31T09:55:58.623Z,9.05
2017-10-31T09:58:26.335Z,10.10
2017-10-31T10:00:54.085Z,8.98
2017-10-31T10:03:22.494Z,9.85
2017-10-31T10:05:50.085Z,9.63
2017-10-31T10:08:17.662Z,9.65
2017-10-31T10:10:45.341Z,10.38
2017-10-31T10:13:12.961Z,9.55
2017-10-31T10:15:40.605Z,10.13
2017-10-31T10:18:08.312Z,9.98
2017-10-31T10:20:36.626Z,10.90
2017-10-31T10:23:05.159Z,9.07
2017-10-31T10:25:32.732Z,11.52
2017-10-31T10:28:00.379Z,8.10
2017-10-31T10:30:27.975Z,9.38
2017-10-31T10:32:56.432Z,10.70
2017-10-31T10:35:24.038Z,8.55
2017-10-31T10:37:51.660Z,9.43
2017-10-31T10:40:19.303Z,8.15
2017-10-31T10:42:46.947Z,8.82
2017-10-31T10:45:14.659Z,9.85
2017-10-31T10:47:42.296Z,10.60
2017-10-31T10:50:09.909Z,15.07
2017-10-31T10:52:37.911Z,11.50
2017-10-31T10:55:05.555Z,9.70
2017-10-31T10:57:33.267Z,11.88
2017-10-31T11:00:01.026Z,11.35
2017-10-31T11:02:28.692Z,11.07
2017-10-31T11:04:56.345Z,10.85
2017-10-31T11:07:24.075Z,9.95
2017-10-31T11:09:51.700Z,10.75
2017-10-31T11:12:20.063Z,11.50
2017-10-31T11:14:47.669Z,9.02
2017-10-31T11:17:15.351Z,9.57
2017-10-31T11:19:42.917Z,11.85
2017-10-31T11:22:10.542Z,10.60
2017-10-31T11:24:38.120Z,12.52
2017-10-31T11:27:05.736Z,11.75
2017-10-31T11:29:33.494Z,16.08
2017-10-31T11:32:01.512Z,11.85
2017-10-31T11:34:29.842Z,10.98
2017-10-31T11:36:57.636Z,10.77
2017-10-31T11:39:25.282Z,9.82
2017-10-31T11:41:52.980Z,10.63
2017-10-31T11:44:20.875Z,12.27
2017-10-31T11:46:49.276Z,11.25
2017-10-31T11:49:18.702Z,11.12
2017-10-31T11:51:46.824Z,17.85
2017-10-31T11:54:14.881Z,9.88
2017-10-31T11:56:43.078Z,9.75
2017-10-31T11:59:10.808Z,11.80
2017-10-31T12:01:39.177Z,9.57
2017-10-31T12:04:06.785Z,9.93
2017-10-31T12:06:34.492Z,9.30
2017-10-31T12:09:02.090Z,8.95
2017-10-31T12:11:29.700Z,8.95
2017-10-31T12:13:58.123Z,7.97
2017-10-31T12:16:25.727Z,10.07
2017-10-31T12:18:53.313Z,8.07
2017-10-31T12:21:20.913Z,9.27
2017-10-31T12:23:48.714Z,7.90
2017-10-31T12:26:16.386Z,9.93
2017-10-31T12:28:44.059Z,8.35
2017-10-31T12:31:11.949Z,7.35
2017-10-31T12:33:39.541Z,7.15
2017-10-31T12:36:07.770Z,6.20
2017-10-31T12:38:35.459Z,5.12
2017-10-31T12:41:03.075Z,6.95
2017-10-31T12:43:30.929Z,7.18
2017-10-31T12:45:58.542Z,6.37
2017-10-31T12:48:26.972Z,6.30
2017-10-31T12:50:54.644Z,6.43
2017-10-31T12:53:22.296Z,7.85
2017-10-31T12:55:49.936Z,8.57
2017-10-31T12:58:17.617Z,8.48
2017-10-31T13:00:45.317Z,10.25
2017-10-31T13:03:12.943Z,9.30
2017-10-31T13:05:40.765Z,7.30
2017-10-31T13:08:08.439Z,7.20
2017-10-31T13:10:36.908Z,7.40
2017-10-31T13:13:04.568Z,7.55
2017-10-31T13:15:32.974Z,8.15
2017-10-31T13:18:00.561Z,5.85
2017-10-31T13:20:28.208Z,6.85
2017-10-31T13:22:55.888Z,6.70
2017-10-31T13:25:23.535Z,6.28
2017-10-31T13:27:51.521Z,8.45
2017-10-31T13:30:19.676Z,6.60
2017-10-31T13:32:47.805Z,6.70
2017-10-31T13:35:16.579Z,8.90
2017-10-31T13:37:44.803Z,7.82
2017-10-31T13:40:12.975Z,9.10
2017-10-31T13:42:42.039Z,7.60
2017-10-31T13:45:10.518Z,7.43
2017-10-31T13:47:38.689Z,6.80
2017-10-31T13:50:06.913Z,6.65
2017-10-31T13:52:35.491Z,7.07
2017-10-31T13:55:03.128Z,6.32
2017-10-31T13:57:30.739Z,6.25
2017-10-31T13:59:58.465Z,7.72
2017-10-31T14:02:26.633Z,7.20
2017-10-31T14:04:54.784Z,6.57
2017-10-31T14:07:22.725Z,7.10
2017-10-31T14:09:50.773Z,8.30
2017-10-31T14:12:18.903Z,6.50
2017-10-31T14:14:46.566Z,5.93
2017-10-31T14:17:15.017Z,5.90
2017-10-31T14:19:44.041Z,6.00
2017-10-31T14:22:11.677Z,7.30
2017-10-31T14:24:39.344Z,8.20
2017-10-31T14:27:07.000Z,7.50
2017-10-31T14:29:35.582Z,9.52
2017-10-31T14:32:03.231Z,6.43
2017-10-31T14:34:31.044Z,5.70
2017-10-31T14:36:59.506Z,6.50
2017-10-31T14:39:28.440Z,6.53
2017-10-31T14:41:56.462Z,8.45
2017-10-31T14:44:24.114Z,11.15
2017-10-31T14:46:51.912Z,9.68
2017-10-31T14:49:19.663Z,6.82
2017-10-31T14:51:48.124Z,6.70
2017-10-31T14:54:16.691Z,6.47
2017-10-31T14:56:44.341Z,13.00
2017-10-31T14:59:12.051Z,6.20
2017-10-31T15:01:39.785Z,6.15
2017-10-31T15:04:07.529Z,6.60
2017-10-31T15:06:35.222Z,6.50
2017-10-31T15:09:02.850Z,6.93
2017-10-31T15:11:30.563Z,7.28
2017-10-31T15:13:58.309Z,6.75
2017-10-31T15:16:26.073Z,6.28
2017-10-31T15:18:53.704Z,6.22
2017-10-31T15:21:21.377Z,7.18
2017-10-31T15:23:49.113Z,6.07
2017-10-31T15:26:17.536Z,6.45
2017-10-31T15:28:45.226Z,6.40
2017-10-31T15:31:13.667Z,6.50
2017-10-31T15:33:41.323Z,7.60
2017-10-31T15:36:09.444Z,6.60
2017-10-31T15:38:37.094Z,6.93
2017-10-31T15:41:04.739Z,6.50
2017-10-31T15:43:32.385Z,5.60
2017-10-31T15:46:00.247Z,5.30
2017-10-31T15:48:27.922Z,6.78
2017-10-31T15:50:55.542Z,6.47
2017-10-31T15:53:23.204Z,6.93
2017-10-31T15:55:50.874Z,6.60
2017-10-31T15:58:18.537Z,6.15
2017-10-31T16:00:46.225Z,6.10
2017-10-31T16:03:13.855Z,6.37
2017-10-31T16:05:41.508Z,5.75
2017-10-31T16:08:09.192Z,5.25
2017-10-31T16:10:36.842Z,4.95
2017-10-31T16:13:04.528Z,5.07
2017-10-31T16:15:33.005Z,6.07
2017-10-31T16:18:00.687Z,6.22
2017-10-31T16:20:29.092Z,6.05
2017-10-31T16:22:56.770Z,5.80
2017-10-31T16:25:24.960Z,5.93
2017-10-31T16:27:52.644Z,5.40
2017-10-31T16:30:20.330Z,5.72
2017-10-31T16:32:48.726Z,5.80
2017-10-31T16:35:16.463Z,6.47
2017-10-31T16:37:45.020Z,8.30
2017-10-31T16:40:12.713Z,6.53
2017-10-31T16:42:41.158Z,6.20
2017-10-31T16:45:08.905Z,6.05
2017-10-31T16:47:36.584Z,6.60
2017-10-31T16:50:04.274Z,6.53
2017-10-31T16:52:31.931Z,8.00
2017-10-31T16:54:59.614Z,7.45
2017-10-31T16:57:27.291Z,8.15
2017-10-31T16:59:55.016Z,8.40
2017-10-31T17:02:22.659Z,6.05
2017-10-31T17:04:50.315Z,7.78
2017-10-31T17:07:17.991Z,8.82
2017-10-31T17:09:46.426Z,9.05
2017-10-31T17:12:14.156Z,8.20
2017-10-31T17:14:41.804Z,7.22
2017-10-31T17:17:09.446Z,6.50
2017-10-31T17:19:37.227Z,8.70
2017-10-31T17:22:05.248Z,6.93
2017-10-31T17:24:33.080Z,8.68
2017-10-31T17:27:01.528Z,9.35
2017-10-31T17:29:29.212Z,8.52
2017-10-31T17:31:57.921Z,8.68
2017-10-31T17:34:25.744Z,9.88
2017-10-31T17:36:53.455Z,10.13
2017-10-31T17:39:21.098Z,9.60
2017-10-31T17:41:50.159Z,9.15
2017-10-31T17:44:19.027Z,12.75
2017-10-31T17:46:47.236Z,12.25
2017-10-31T17:49:14.893Z,10.40
2017-10-31T17:51:42.553Z,10.75
2017-10-31T17:54:11.896Z,9.77
2017-10-31T17:56:39.532Z,10.00
2017-10-31T17:59:07.196Z,10.20
2017-10-31T18:01:34.984Z,10.52
2017-10-31T18:04:02.679Z,10.27
2017-10-31T18:06:30.544Z,10.40
2017-10-31T18:08:58.172Z,8.35
2017-10-31T18:11:25.863Z,11.35
2017-10-31T18:13:53.528Z,9.68
2017-10-31T18:16:21.216Z,12.02
2017-10-31T18:18:48.858Z,10.82
2017-10-31T18:21:17.255Z,10.32
2017-10-31T18:23:45.651Z,10.15
2017-10-31T18:26:13.305Z,9.30
2017-10-31T18:28:41.300Z,9.52
2017-10-31T18:31:08.925Z,10.73
2017-10-31T18:33:37.386Z,10.75
2017-10-31T18:36:05.065Z,10.05
2017-10-31T18:38:32.750Z,11.35
2017-10-31T18:41:00.344Z,11.38
2017-10-31T18:43:28.884Z,13.75
2017-10-31T18:45:56.552Z,11.27
2017-10-31T18:48:24.249Z,11.15
2017-10-31T18:50:52.669Z,21.45
2017-10-31T18:53:20.313Z,9.30
2017-10-31T18:55:47.997Z,14.70
2017-10-31T18:58:15.641Z,10.23
2017-10-31T19:00:43.320Z,11.70
2017-10-31T19:03:10.984Z,10.65
2017-10-31T19:05:38.847Z,11.05
2017-10-31T19:08:06.725Z,11.25
2017-10-31T19:10:34.413Z,11.07
2017-10-31T19:13:02.838Z,9.85
2017-10-31T19:15:30.477Z,9.82
2017-10-31T19:17:58.895Z,9.70
2017-10-31T19:20:26.531Z,10.23
2017-10-31T19:22:54.939Z,9.32
2017-10-31T19:25:22.601Z,10.23
2017-10-31T19:27:50.245Z,10.68
2017-10-31T19:30:17.925Z,10.40
2017-10-31T19:32:45.643Z,8.38
2017-10-31T19:35:13.321Z,8.93
2017-10-31T19:37:40.973Z,9.52
2017-10-31T19:40:09.420Z,8.65
2017-10-31T19:42:37.946Z,9.77
2017-10-31T19:45:05.619Z,8.65
2017-10-31T19:47:33.324Z,8.77
2017-10-31T19:50:01.109Z,8.95
2017-10-31T19:52:28.791Z,8.65
2017-10-31T19:54:56.464Z,9.23
2017-10-31T19:57:24.098Z,9.55
2017-10-31T19:59:51.959Z,8.63
2017-10-31T20:02:19.627Z,9.32
2017-10-31T20:04:48.706Z,8.10
2017-10-31T20:07:17.190Z,10.50
2017-10-31T20:09:45.682Z,9.40
2017-10-31T20:12:13.920Z,9.60
2017-10-31T20:14:41.880Z,9.75
2017-10-31T20:17:09.824Z,8.43
2017-10-31T20:19:37.495Z,8.77
2017-10-31T20:22:05.183Z,8.77
2017-10-31T20:24:33.411Z,11.20
2017-10-31T20:27:01.074Z,8.90
2017-10-31T20:29:28.724Z,9.60
2017-10-31T20:31:56.395Z,8.77
2017-10-31T20:34:24.049Z,10.60
2017-10-31T20:36:53.369Z,9.48
2017-10-31T20:39:21.074Z,10.63
2017-10-31T20:41:49.497Z,8.85
2017-10-31T20:44:17.215Z,9.43
2017-10-31T20:46:45.686Z,8.05
2017-10-31T20:49:13.364Z,10.68
2017-10-31T20:51:41.871Z,9.85
2017-10-31T20:54:10.352Z,9.48
2017-10-31T20:56:37.985Z,10.80
2017-10-31T20:59:05.760Z,9.68
2017-10-31T21:01:33.411Z,9.63
2017-10-31T21:04:01.179Z,8.90
2017-10-31T21:06:28.844Z,8.98
2017-10-31T21:08:56.523Z,9.38
2017-10-31T21:11:25.003Z,10.25
2017-10-31T21:13:53.471Z,11.57
2017-10-31T21:16:21.821Z,10.55
2017-10-31T21:18:49.484Z,11.30
2017-10-31T21:21:17.588Z,10.65
2017-10-31T21:23:45.220Z,10.52
2017-10-31T21:26:12.876Z,9.52
2017-10-31T21:28:40.651Z,10.68
2017-10-31T21:31:08.772Z,11.18
2017-10-31T21:33:36.510Z,11.80
2017-10-31T21:36:04.934Z,12.37
2017-10-31T21:38:32.591Z,13.70
2017-10-31T21:41:00.321Z,11.57
2017-10-31T21:43:28.761Z,13.57
2017-10-31T21:45:56.629Z,14.40
2017-10-31T21:48:24.264Z,11.73
2017-10-31T21:50:52.087Z,12.20
2017-10-31T21:53:20.865Z,13.68
2017-10-31T21:55:48.612Z,13.80
2017-10-31T21:58:16.460Z,13.77
2017-10-31T22:00:44.170Z,13.10
2017-10-31T22:03:12.223Z,14.70
2017-10-31T22:05:39.864Z,14.35
2017-10-31T22:08:07.522Z,16.02
2017-10-31T22:10:35.209Z,14.80
2017-10-31T22:13:02.920Z,13.48
2017-10-31T22:15:30.605Z,15.00
2017-10-31T22:17:58.265Z,16.98
2017-10-31T22:20:25.937Z,14.75
2017-10-31T22:22:54.621Z,15.40
2017-10-31T22:25:22.321Z,15.68
2017-10-31T22:27:50.050Z,12.85
2017-10-31T22:30:17.705Z,17.35
2017-10-31T22:32:46.266Z,16.83
2017-10-31T22:35:13.968Z,17.15
2017-10-31T22:37:41.672Z,17.85
2017-10-31T22:40:09.350Z,17.80
2017-10-31T22:42:37.756Z,17.87
2017-10-31T22:45:05.428Z,16.00
2017-10-31T22:47:34.056Z,18.60
2017-10-31T22:50:01.780Z,16.73
2017-10-31T22:52:29.475Z,18.30
2017-10-31T22:54:57.185Z,18.75
2017-10-31T22:57:25.569Z,16.20
2017-10-31T22:59:53.202Z,16.95
2017-10-31T23:02:21.665Z,14.05
2017-10-31T23:04:49.422Z,16.15
2017-10-31T23:07:17.108Z,15.65
2017-10-31T23:09:45.553Z,16.52
2017-10-31T23:12:13.193Z,16.12
2017-10-31T23:14:41.874Z,15.30
2017-10-31T23:17:12.653Z,15.60
2017-10-31T23:19:48.510Z,14.45
2017-10-31T23:22:21.193Z,14.82
2017-10-31T23:24:54.603Z,15.38
2017-10-31T23:27:23.636Z,16.50
2017-10-31T23:29:51.323Z,18.40
2017-10-31T23:32:18.981Z,14.52
2017-10-31T23:34:47.408Z,16.50
2017-10-31T23:37:15.083Z,17.17
2017-10-31T23:39:42.718Z,16.62
2017-10-31T23:42:10.393Z,14.13
2017-10-31T23:44:38.090Z,14.60
2017-10-31T23:47:05.787Z,16.00
2017-10-31T23:49:33.523Z,15.77
2017-10-31T23:52:01.160Z,14.70
2017-10-31T23:54:28.844Z,14.35
2017-10-31T23:56:57.568Z,22.77
2017-10-31T23:59:25.224Z,15.27
